createdAt,value
2019-06-10T04:00:28.920Z,11.25
2019-06-10T04:03:57.110Z,11.25
2019-06-10T04:07:31.032Z,11.25
2019-06-10T04:10:59.974Z,16.875
2019-06-10T04:14:32.717Z,11.25
2019-06-10T04:17:59.854Z,11.25
2019-06-10T04:21:32.564Z,11.25
2019-06-10T04:24:59.753Z,16.875
2019-06-10T04:28:30.682Z,16.875
2019-06-10T04:31:59.638Z,16.875
2019-06-10T04:35:30.577Z,22.5
2019-06-10T04:38:59.525Z,16.875
2019-06-10T04:42:32.781Z,16.875
2019-06-10T04:45:59.396Z,16.875
2019-06-10T04:49:32.794Z,22.5
2019-06-10T04:53:02.268Z,22.5
2019-06-10T04:56:34.181Z,22.5
2019-06-10T05:00:10.920Z,39.375
2019-06-10T05:03:36.016Z,33.75
2019-06-10T05:07:05.062Z,22.5
2019-06-10T05:10:35.004Z,22.5
2019-06-10T05:14:03.962Z,16.875
2019-06-10T05:17:34.875Z,22.5
2019-06-10T05:21:03.834Z,22.5
2019-06-10T05:24:34.776Z,16.875
2019-06-10T05:28:03.717Z,16.875
2019-06-10T05:31:35.670Z,22.5
2019-06-10T05:35:05.605Z,28.125
2019-06-10T05:38:36.518Z,39.375
2019-06-10T05:42:05.463Z,50.625
2019-06-10T05:45:36.396Z,61.875
2019-06-10T05:49:05.335Z,50.625
2019-06-10T05:52:36.302Z,45
2019-06-10T05:56:05.251Z,45
2019-06-10T05:59:35.935Z,45
2019-06-10T06:03:04.128Z,50.625
2019-06-10T06:06:35.381Z,56.25
2019-06-10T06:10:06.016Z,56.25
2019-06-10T06:13:38.015Z,50.625
2019-06-10T06:17:05.884Z,50.625
2019-06-10T06:20:37.601Z,56.25
2019-06-10T06:24:06.788Z,61.875
2019-06-10T06:27:38.721Z,61.875
2019-06-10T06:31:07.673Z,73.125
2019-06-10T06:34:39.613Z,67.5
2019-06-10T06:38:08.546Z,56.25
2019-06-10T06:41:39.511Z,50.625
2019-06-10T06:45:08.470Z,45
2019-06-10T06:48:43.625Z,39.375
2019-06-10T06:52:12.638Z,39.375
2019-06-10T06:55:43.267Z,39.375
2019-06-10T06:59:12.952Z,56.25
2019-06-10T07:02:43.736Z,50.625
2019-06-10T07:06:13.157Z,50.625
2019-06-10T07:09:44.192Z,56.25
2019-06-10T07:13:15.067Z,61.875
2019-06-10T07:16:46.981Z,67.5
2019-06-10T07:20:17.729Z,90
2019-06-10T07:23:48.715Z,123.75
2019-06-10T07:27:16.783Z,129.375
2019-06-10T07:30:52.416Z,135
2019-06-10T07:34:22.213Z,151.875
2019-06-10T07:37:52.282Z,157.5
2019-06-10T07:41:22.956Z,140.625
2019-06-10T07:44:50.152Z,123.75
2019-06-10T07:48:22.157Z,112.5
2019-06-10T07:51:52.198Z,106.875
2019-06-10T07:55:18.920Z,112.5
2019-06-10T07:58:52.522Z,129.375
2019-06-10T08:02:18.820Z,163.125
2019-06-10T08:05:48.754Z,180
2019-06-10T08:09:17.725Z,185.625
2019-06-10T08:12:49.034Z,196.875
2019-06-10T08:16:19.246Z,168.75
2019-06-10T08:19:54.052Z,151.875
2019-06-10T08:23:23.555Z,163.125
2019-06-10T08:26:50.300Z,185.625
2019-06-10T08:30:27.370Z,174.375
2019-06-10T08:33:54.215Z,196.875
2019-06-10T08:37:24.177Z,196.875
2019-06-10T08:40:54.184Z,168.75
2019-06-10T08:44:23.180Z,157.5
2019-06-10T08:47:54.156Z,135
2019-06-10T08:51:23.870Z,118.125
2019-06-10T08:54:54.994Z,140.625
2019-06-10T08:58:23.999Z,157.5
2019-06-10T09:01:56.945Z,123.75
2019-06-10T09:05:26.864Z,146.25
2019-06-10T09:08:57.003Z,202.5
2019-06-10T09:12:33.835Z,236.25
2019-06-10T09:16:12.477Z,202.5
2019-06-10T09:19:38.572Z,174.375
2019-06-10T09:23:18.907Z,163.125
2019-06-10T09:26:48.583Z,191.25
2019-06-10T09:30:17.465Z,230.625
2019-06-10T09:33:53.271Z,241.875
2019-06-10T09:37:22.849Z,174.375
2019-06-10T09:41:01.190Z,157.5
2019-06-10T09:44:25.743Z,225
2019-06-10T09:47:59.752Z,298.125
2019-06-10T09:51:28.630Z,326.25
2019-06-10T09:54:59.564Z,360
2019-06-10T09:58:28.559Z,320.625
2019-06-10T10:02:08.029Z,281.25
2019-06-10T10:05:38.004Z,343.125
2019-06-10T10:09:07.943Z,326.25
2019-06-10T10:12:36.996Z,506.25
2019-06-10T10:16:05.983Z,399.375
2019-06-10T10:19:34.440Z,331.875
2019-06-10T10:23:03.918Z,354.375
2019-06-10T10:26:31.918Z,354.375
2019-06-10T10:30:03.337Z,320.625
2019-06-10T10:33:33.877Z,371.25
2019-06-10T10:37:03.826Z,331.875
2019-06-10T10:40:33.801Z,281.25
2019-06-10T10:44:03.751Z,326.25
2019-06-10T10:47:33.771Z,421.875
2019-06-10T10:51:03.352Z,371.25
2019-06-10T10:54:36.697Z,331.875
2019-06-10T10:58:04.782Z,326.25
2019-06-10T11:01:34.186Z,399.375
2019-06-10T11:05:01.814Z,540
2019-06-10T11:08:32.348Z,517.5
2019-06-10T11:12:02.804Z,450
2019-06-10T11:15:29.750Z,281.25
2019-06-10T11:19:02.513Z,292.5
2019-06-10T11:22:29.657Z,360
2019-06-10T11:26:00.608Z,230.625
2019-06-10T11:29:29.210Z,202.5
2019-06-10T11:33:03.230Z,253.125
2019-06-10T11:36:31.100Z,219.375
2019-06-10T11:39:59.071Z,157.5
2019-06-10T11:43:29.035Z,180
2019-06-10T11:47:03.138Z,213.75
2019-06-10T11:50:30.140Z,191.25
2019-06-10T11:54:03.201Z,185.625
2019-06-10T11:57:32.971Z,230.625
2019-06-10T12:01:04.479Z,163.125
2019-06-10T12:04:33.443Z,123.75
2019-06-10T12:08:04.399Z,112.5
2019-06-10T12:11:34.285Z,157.5
2019-06-10T12:15:04.354Z,118.125
2019-06-10T12:18:33.403Z,213.75
2019-06-10T12:22:07.479Z,168.75
2019-06-10T12:25:39.636Z,230.625
2019-06-10T12:29:09.183Z,129.375
2019-06-10T12:32:38.960Z,135
2019-06-10T12:36:12.582Z,123.75
2019-06-10T12:39:42.181Z,225
2019-06-10T12:43:12.463Z,275.625
2019-06-10T12:46:39.961Z,247.5
2019-06-10T12:50:09.059Z,196.875
2019-06-10T12:53:38.949Z,225
2019-06-10T12:57:12.173Z,208.125
2019-06-10T13:00:38.868Z,292.5
2019-06-10T13:04:13.571Z,348.75
2019-06-10T13:07:42.865Z,393.75
2019-06-10T13:11:13.199Z,354.375
2019-06-10T13:14:43.505Z,309.375
2019-06-10T13:18:19.119Z,613.125
2019-06-10T13:21:46.345Z,1164.375
2019-06-10T13:25:15.343Z,376.875
2019-06-10T13:28:45.324Z,382.5
2019-06-10T13:32:13.248Z,303.75
2019-06-10T13:35:44.092Z,281.25
2019-06-10T13:39:14.273Z,382.5
2019-06-10T13:42:43.238Z,393.75
2019-06-10T13:46:13.240Z,275.625
2019-06-10T13:49:42.809Z,382.5
2019-06-10T13:53:14.160Z,309.375
2019-06-10T13:56:47.765Z,191.25
2019-06-10T14:00:17.132Z,309.375
2019-06-10T14:03:47.161Z,270
2019-06-10T14:07:18.106Z,315
2019-06-10T14:10:47.086Z,326.25
2019-06-10T14:14:19.195Z,444.375
2019-06-10T14:17:48.038Z,466.875
2019-06-10T14:21:18.983Z,489.375
2019-06-10T14:24:48.936Z,438.75
2019-06-10T14:28:38.014Z,388.125
2019-06-10T14:31:53.842Z,523.125
2019-06-10T14:35:26.713Z,573.75
2019-06-10T14:38:53.745Z,500.625
2019-06-10T14:42:23.149Z,438.75
2019-06-10T14:45:53.116Z,410.625
2019-06-10T14:49:22.302Z,388.125
2019-06-10T14:52:51.811Z,399.375
2019-06-10T14:56:23.792Z,382.5
2019-06-10T14:59:54.743Z,354.375
2019-06-10T15:03:24.801Z,343.125
2019-06-10T15:06:55.758Z,343.125
2019-06-10T15:10:26.712Z,331.875
2019-06-10T15:13:56.673Z,326.25
2019-06-10T15:17:26.638Z,320.625
2019-06-10T15:20:57.887Z,298.125
2019-06-10T15:24:27.710Z,286.875
2019-06-10T15:27:56.707Z,264.375
2019-06-10T15:31:26.721Z,264.375
2019-06-10T15:34:56.687Z,264.375
2019-06-10T15:38:26.688Z,241.875
2019-06-10T15:41:55.668Z,225
2019-06-10T15:45:24.725Z,202.5
2019-06-10T15:48:54.684Z,196.875
2019-06-10T15:52:26.667Z,185.625
2019-06-10T15:56:14.146Z,174.375
2019-06-10T15:59:29.706Z,168.75
2019-06-10T16:03:06.215Z,157.5
2019-06-10T16:06:35.213Z,157.5
2019-06-10T16:10:04.253Z,157.5
2019-06-10T16:13:33.223Z,151.875
2019-06-10T16:17:03.100Z,151.875
2019-06-10T16:20:32.321Z,151.875
2019-06-10T16:23:59.200Z,174.375
2019-06-10T16:27:44.385Z,180
2019-06-10T16:31:05.190Z,202.5
2019-06-10T16:34:34.143Z,151.875
2019-06-10T16:38:02.105Z,146.25
2019-06-10T16:41:32.397Z,146.25
2019-06-10T16:45:02.346Z,146.25
2019-06-10T16:48:33.059Z,151.875
2019-06-10T16:51:59.892Z,146.25
2019-06-10T16:55:30.327Z,146.25
2019-06-10T16:58:59.815Z,151.875
2019-06-10T17:02:33.013Z,151.875
2019-06-10T17:05:59.714Z,135
2019-06-10T17:09:32.904Z,146.25
2019-06-10T17:13:02.856Z,151.875
2019-06-10T17:16:31.508Z,106.875
2019-06-10T17:19:59.462Z,90
2019-06-10T17:23:36.173Z,78.75
2019-06-10T17:27:03.339Z,73.125
2019-06-10T17:30:34.788Z,56.25
2019-06-10T17:34:03.259Z,56.25
2019-06-10T17:37:33.657Z,67.5
2019-06-10T17:41:02.877Z,61.875
2019-06-10T17:44:33.133Z,61.875
2019-06-10T17:48:03.446Z,56.25
2019-06-10T17:51:36.315Z,50.625
2019-06-10T17:55:05.268Z,39.375
2019-06-10T17:58:49.916Z,39.375
2019-06-10T18:02:08.609Z,33.75
2019-06-10T18:05:37.858Z,22.5
2019-06-10T18:09:06.878Z,22.5
2019-06-10T18:12:37.882Z,56.25
2019-06-10T18:16:06.934Z,67.5
2019-06-10T18:19:37.868Z,95.625
2019-06-10T18:23:06.829Z,67.5
2019-06-10T18:26:38.735Z,28.125
2019-06-10T18:30:14.235Z,22.5
2019-06-10T18:33:42.649Z,16.875
2019-06-10T18:37:11.624Z,16.875
2019-06-10T18:40:42.831Z,11.25
2019-06-10T18:44:21.964Z,11.25
2019-06-10T18:47:46.430Z,11.25
2019-06-10T18:51:15.370Z,5.625
2019-06-10T18:54:45.300Z,11.25
2019-06-10T18:58:13.327Z,11.25
2019-06-10T19:01:42.512Z,11.25
2019-06-10T19:05:12.893Z,5.625
2019-06-10T19:08:44.211Z,5.625
2019-06-10T19:12:13.483Z,5.625
2019-06-10T19:15:44.067Z,5.625
2019-06-10T19:19:13.146Z,5.625
2019-06-10T19:22:44.117Z,0
2019-06-10T19:26:14.113Z,0
2019-06-10T19:29:50.984Z,0
2019-06-10T19:33:17.067Z,0
2019-06-10T19:36:47.053Z,0
2019-06-10T19:40:16.080Z,0
2019-06-10T19:43:47.259Z,0
2019-06-10T19:47:16.220Z,0
2019-06-10T19:50:51.090Z,0
2019-06-10T19:54:19.158Z,0
2019-06-10T19:57:48.253Z,0
2019-06-10T20:01:16.297Z,0
2019-06-10T20:04:47.247Z,0
2019-06-10T20:08:16.211Z,0
2019-06-10T20:11:48.315Z,0
2019-06-10T20:15:17.198Z,0
2019-06-10T20:18:49.818Z,0
2019-06-10T20:22:19.114Z,0
2019-06-10T20:25:52.673Z,0
2019-06-10T20:29:22.078Z,0
2019-06-10T20:32:56.070Z,0
2019-06-10T20:36:27.413Z,0
2019-06-10T20:39:55.836Z,0
2019-06-10T20:43:24.786Z,0
2019-06-10T20:46:54.739Z,0
2019-06-10T20:50:22.710Z,0
2019-06-10T20:53:53.270Z,0
2019-06-10T20:57:22.609Z,0
2019-06-10T21:00:56.928Z,0
2019-06-10T21:04:23.447Z,0
2019-06-10T21:07:53.389Z,0
2019-06-10T21:11:23.040Z,0
2019-06-10T21:14:53.286Z,0
2019-06-10T21:18:23.356Z,0
2019-06-10T21:21:55.254Z,0
2019-06-10T21:25:24.315Z,0
2019-06-10T21:28:56.287Z,0
2019-06-10T21:32:24.252Z,0
2019-06-10T21:35:55.187Z,0
2019-06-10T21:39:23.138Z,0
2019-06-10T21:42:55.163Z,0
2019-06-10T21:46:25.123Z,0
2019-06-10T21:49:56.118Z,0
2019-06-10T21:53:25.116Z,0
2019-06-10T21:56:56.057Z,0
